sensor_id;sensor_type;location;lat;lon;timestamp;P1;durP1;ratioP1;P2;durP2;ratioP2
78372;SDS011;67656;52.074;4.758;2023-09-07T00:03:15;14.23;;;8.52;;
78372;SDS011;67656;52.074;4.758;2023-09-07T00:08:15;12.27;;;7.38;;
78372;SDS011;67656;52.074;4.758;2023-09-07T00:13:16;13.40;;;7.32;;
78372;SDS011;67656;52.074;4.758;2023-09-07T00:18:16;13.07;;;7.55;;
78372;SDS011;67656;52.074;4.758;2023-09-07T00:23:16;15.82;;;7.20;;
78372;SDS011;67656;52.074;4.758;2023-09-07T00:28:17;12.30;;;7.20;;
78372;SDS011;67656;52.074;4.758;2023-09-07T00:33:17;13.82;;;7.32;;
78372;SDS011;67656;52.074;4.758;2023-09-07T00:38:17;11.77;;;7.10;;
78372;SDS011;67656;52.074;4.758;2023-09-07T00:43:18;12.43;;;7.07;;
78372;SDS011;67656;52.074;4.758;2023-09-07T00:48:18;10.02;;;6.53;;
78372;SDS011;67656;52.074;4.758;2023-09-07T00:53:19;12.98;;;7.13;;
78372;SDS011;67656;52.074;4.758;2023-09-07T00:58:20;11.65;;;6.93;;
78372;SDS011;67656;52.074;4.758;2023-09-07T01:03:22;11.23;;;6.72;;
78372;SDS011;67656;52.074;4.758;2023-09-07T01:08:26;14.07;;;7.43;;
78372;SDS011;67656;52.074;4.758;2023-09-07T01:13:31;15.75;;;8.50;;
78372;SDS011;67656;52.074;4.758;2023-09-07T01:18:32;13.35;;;7.47;;
78372;SDS011;67656;52.074;4.758;2023-09-07T01:23:36;13.95;;;7.38;;
78372;SDS011;67656;52.074;4.758;2023-09-07T01:28:37;13.93;;;7.90;;
78372;SDS011;67656;52.074;4.758;2023-09-07T01:33:39;12.77;;;7.25;;
78372;SDS011;67656;52.074;4.758;2023-09-07T01:38:39;13.73;;;7.90;;
78372;SDS011;67656;52.074;4.758;2023-09-07T01:43:39;13.65;;;6.95;;
78372;SDS011;67656;52.074;4.758;2023-09-07T01:48:40;15.48;;;8.25;;
78372;SDS011;67656;52.074;4.758;2023-09-07T01:53:40;14.50;;;8.43;;
78372;SDS011;67656;52.074;4.758;2023-09-07T01:58:40;15.25;;;9.00;;
78372;SDS011;67656;52.074;4.758;2023-09-07T02:03:41;16.05;;;8.60;;
78372;SDS011;67656;52.074;4.758;2023-09-07T02:08:41;16.55;;;9.00;;
78372;SDS011;67656;52.074;4.758;2023-09-07T02:13:42;16.70;;;8.90;;
78372;SDS011;67656;52.074;4.758;2023-09-07T02:18:44;15.27;;;9.23;;
78372;SDS011;67656;52.074;4.758;2023-09-07T02:23:44;14.10;;;8.07;;
78372;SDS011;67656;52.074;4.758;2023-09-07T02:28:45;17.58;;;9.10;;
78372;SDS011;67656;52.074;4.758;2023-09-07T02:33:45;18.30;;;8.55;;
78372;SDS011;67656;52.074;4.758;2023-09-07T02:38:46;13.75;;;8.70;;
78372;SDS011;67656;52.074;4.758;2023-09-07T02:43:46;16.23;;;9.40;;
78372;SDS011;67656;52.074;4.758;2023-09-07T02:48:47;15.45;;;9.23;;
78372;SDS011;67656;52.074;4.758;2023-09-07T02:53:47;17.60;;;9.40;;
78372;SDS011;67656;52.074;4.758;2023-09-07T02:58:48;16.90;;;9.65;;
78372;SDS011;67656;52.074;4.758;2023-09-07T03:03:48;18.52;;;9.80;;
78372;SDS011;67656;52.074;4.758;2023-09-07T03:08:49;18.98;;;9.30;;
78372;SDS011;67656;52.074;4.758;2023-09-07T03:13:50;17.33;;;9.35;;
78372;SDS011;67656;52.074;4.758;2023-09-07T03:18:51;17.48;;;9.85;;
78372;SDS011;67656;52.074;4.758;2023-09-07T03:23:52;15.73;;;9.60;;
78372;SDS011;67656;52.074;4.758;2023-09-07T03:28:52;15.25;;;9.25;;
78372;SDS011;67656;52.074;4.758;2023-09-07T03:33:53;16.42;;;8.90;;
78372;SDS011;67656;52.074;4.758;2023-09-07T03:38:54;16.33;;;10.05;;
78372;SDS011;67656;52.074;4.758;2023-09-07T03:43:54;17.50;;;10.10;;
78372;SDS011;67656;52.074;4.758;2023-09-07T03:48:54;18.20;;;10.35;;
78372;SDS011;67656;52.074;4.758;2023-09-07T03:53:55;17.85;;;10.40;;
78372;SDS011;67656;52.074;4.758;2023-09-07T03:58:55;18.45;;;10.45;;
78372;SDS011;67656;52.074;4.758;2023-09-07T04:03:56;21.90;;;11.10;;
78372;SDS011;67656;52.074;4.758;2023-09-07T04:08:56;22.67;;;11.63;;
78372;SDS011;67656;52.074;4.758;2023-09-07T04:13:56;25.02;;;12.75;;
78372;SDS011;67656;52.074;4.758;2023-09-07T04:18:57;24.67;;;13.10;;
78372;SDS011;67656;52.074;4.758;2023-09-07T04:23:57;24.08;;;12.48;;
78372;SDS011;67656;52.074;4.758;2023-09-07T04:28:58;25.88;;;12.32;;
78372;SDS011;67656;52.074;4.758;2023-09-07T04:33:58;24.20;;;11.38;;
78372;SDS011;67656;52.074;4.758;2023-09-07T04:38:59;21.55;;;11.13;;
78372;SDS011;67656;52.074;4.758;2023-09-07T04:43:59;21.05;;;11.57;;
78372;SDS011;67656;52.074;4.758;2023-09-07T04:49:00;21.38;;;10.80;;
78372;SDS011;67656;52.074;4.758;2023-09-07T04:54:00;20.88;;;10.60;;
78372;SDS011;67656;52.074;4.758;2023-09-07T04:59:01;19.30;;;10.35;;
78372;SDS011;67656;52.074;4.758;2023-09-07T05:04:01;22.92;;;11.38;;
78372;SDS011;67656;52.074;4.758;2023-09-07T05:09:02;22.58;;;11.70;;
78372;SDS011;67656;52.074;4.758;2023-09-07T05:14:03;20.58;;;11.43;;
78372;SDS011;67656;52.074;4.758;2023-09-07T05:19:04;22.80;;;12.00;;
78372;SDS011;67656;52.074;4.758;2023-09-07T05:24:05;23.85;;;11.70;;
78372;SDS011;67656;52.074;4.758;2023-09-07T05:29:06;23.13;;;11.32;;
78372;SDS011;67656;52.074;4.758;2023-09-07T05:34:06;19.83;;;10.73;;
78372;SDS011;67656;52.074;4.758;2023-09-07T05:39:07;20.65;;;10.73;;
78372;SDS011;67656;52.074;4.758;2023-09-07T05:44:07;20.90;;;10.60;;
78372;SDS011;67656;52.074;4.758;2023-09-07T05:49:08;22.52;;;12.00;;
78372;SDS011;67656;52.074;4.758;2023-09-07T05:54:08;22.45;;;11.57;;
78372;SDS011;67656;52.074;4.758;2023-09-07T05:59:09;23.27;;;12.07;;
78372;SDS011;67656;52.074;4.758;2023-09-07T06:04:09;20.48;;;11.02;;
78372;SDS011;67656;52.074;4.758;2023-09-07T06:09:10;20.17;;;11.00;;
78372;SDS011;67656;52.074;4.758;2023-09-07T06:14:11;19.65;;;11.10;;
78372;SDS011;67656;52.074;4.758;2023-09-07T06:19:12;19.65;;;10.55;;
78372;SDS011;67656;52.074;4.758;2023-09-07T06:24:13;21.00;;;10.40;;
78372;SDS011;67656;52.074;4.758;2023-09-07T06:29:14;21.25;;;11.35;;
78372;SDS011;67656;52.074;4.758;2023-09-07T06:34:15;18.58;;;10.10;;
78372;SDS011;67656;52.074;4.758;2023-09-07T06:39:16;17.92;;;9.25;;
78372;SDS011;67656;52.074;4.758;2023-09-07T06:44:17;15.60;;;8.70;;
78372;SDS011;67656;52.074;4.758;2023-09-07T06:49:18;14.70;;;8.40;;
78372;SDS011;67656;52.074;4.758;2023-09-07T06:54:19;13.32;;;7.63;;
78372;SDS011;67656;52.074;4.758;2023-09-07T06:59:19;13.15;;;7.68;;
78372;SDS011;67656;52.074;4.758;2023-09-07T07:04:20;15.40;;;7.20;;
78372;SDS011;67656;52.074;4.758;2023-09-07T07:09:20;12.90;;;6.85;;
78372;SDS011;67656;52.074;4.758;2023-09-07T07:14:24;10.70;;;6.32;;
78372;SDS011;67656;52.074;4.758;2023-09-07T07:19:27;12.57;;;6.55;;
78372;SDS011;67656;52.074;4.758;2023-09-07T07:24:28;10.32;;;6.32;;
78372;SDS011;67656;52.074;4.758;2023-09-07T07:29:28;10.97;;;6.90;;
78372;SDS011;67656;52.074;4.758;2023-09-07T07:34:29;8.60;;;5.97;;
78372;SDS011;67656;52.074;4.758;2023-09-07T07:39:30;7.97;;;5.32;;
78372;SDS011;67656;52.074;4.758;2023-09-07T07:44:31;8.60;;;5.53;;
78372;SDS011;67656;52.074;4.758;2023-09-07T07:49:32;8.93;;;5.90;;
78372;SDS011;67656;52.074;4.758;2023-09-07T07:54:36;9.30;;;5.03;;
78372;SDS011;67656;52.074;4.758;2023-09-07T07:59:37;8.60;;;4.80;;
78372;SDS011;67656;52.074;4.758;2023-09-07T08:04:38;8.90;;;4.70;;
78372;SDS011;67656;52.074;4.758;2023-09-07T08:14:40;9.03;;;5.47;;
78372;SDS011;67656;52.074;4.758;2023-09-07T08:19:41;6.67;;;4.33;;
78372;SDS011;67656;52.074;4.758;2023-09-07T08:24:41;8.63;;;4.77;;
78372;SDS011;67656;52.074;4.758;2023-09-07T08:29:42;8.83;;;5.20;;
78372;SDS011;67656;52.074;4.758;2023-09-07T08:34:42;6.77;;;4.60;;
78372;SDS011;67656;52.074;4.758;2023-09-07T08:39:43;8.38;;;4.60;;
78372;SDS011;67656;52.074;4.758;2023-09-07T08:54:46;5.15;;;3.90;;
78372;SDS011;67656;52.074;4.758;2023-09-07T08:59:49;5.97;;;4.25;;
78372;SDS011;67656;52.074;4.758;2023-09-07T09:04:50;9.10;;;4.20;;
78372;SDS011;67656;52.074;4.758;2023-09-07T09:09:50;8.20;;;3.70;;
78372;SDS011;67656;52.074;4.758;2023-09-07T09:19:52;6.82;;;4.20;;
78372;SDS011;67656;52.074;4.758;2023-09-07T09:24:53;5.68;;;3.78;;
78372;SDS011;67656;52.074;4.758;2023-09-07T09:34:54;6.38;;;4.07;;
78372;SDS011;67656;52.074;4.758;2023-09-07T09:39:54;7.10;;;4.03;;
78372;SDS011;67656;52.074;4.758;2023-09-07T09:44:56;4.97;;;3.78;;
78372;SDS011;67656;52.074;4.758;2023-09-07T09:49:58;8.25;;;4.13;;
78372;SDS011;67656;52.074;4.758;2023-09-07T09:55:07;6.82;;;4.15;;
78372;SDS011;67656;52.074;4.758;2023-09-07T10:00:08;8.85;;;4.00;;
78372;SDS011;67656;52.074;4.758;2023-09-07T10:05:12;5.65;;;3.80;;
78372;SDS011;67656;52.074;4.758;2023-09-07T10:15:21;8.43;;;3.95;;
78372;SDS011;67656;52.074;4.758;2023-09-07T10:20:25;5.65;;;3.17;;
78372;SDS011;67656;52.074;4.758;2023-09-07T10:30:30;8.77;;;3.97;;
78372;SDS011;67656;52.074;4.758;2023-09-07T10:40:35;5.35;;;3.50;;
78372;SDS011;67656;52.074;4.758;2023-09-07T10:50:42;4.10;;;3.30;;
78372;SDS011;67656;52.074;4.758;2023-09-07T10:55:46;3.65;;;3.13;;
78372;SDS011;67656;52.074;4.758;2023-09-07T11:05:47;8.77;;;3.13;;
78372;SDS011;67656;52.074;4.758;2023-09-07T11:10:49;4.55;;;2.95;;
78372;SDS011;67656;52.074;4.758;2023-09-07T11:15:53;3.88;;;2.85;;
78372;SDS011;67656;52.074;4.758;2023-09-07T11:20:56;3.80;;;3.03;;
78372;SDS011;67656;52.074;4.758;2023-09-07T11:25:56;3.67;;;2.85;;
78372;SDS011;67656;52.074;4.758;2023-09-07T11:30:57;4.43;;;3.00;;
78372;SDS011;67656;52.074;4.758;2023-09-07T11:35:58;4.90;;;3.20;;
78372;SDS011;67656;52.074;4.758;2023-09-07T11:40:59;5.83;;;3.10;;
78372;SDS011;67656;52.074;4.758;2023-09-07T11:45:59;4.20;;;3.40;;
78372;SDS011;67656;52.074;4.758;2023-09-07T11:51:00;5.33;;;3.40;;
78372;SDS011;67656;52.074;4.758;2023-09-07T11:56:01;6.13;;;3.22;;
78372;SDS011;67656;52.074;4.758;2023-09-07T12:01:01;4.67;;;3.17;;
78372;SDS011;67656;52.074;4.758;2023-09-07T12:06:01;5.23;;;3.30;;
78372;SDS011;67656;52.074;4.758;2023-09-07T12:11:02;4.87;;;3.00;;
78372;SDS011;67656;52.074;4.758;2023-09-07T12:16:02;8.73;;;3.50;;
78372;SDS011;67656;52.074;4.758;2023-09-07T12:21:03;5.30;;;3.50;;
78372;SDS011;67656;52.074;4.758;2023-09-07T12:26:03;5.23;;;3.13;;
78372;SDS011;67656;52.074;4.758;2023-09-07T12:31:03;5.77;;;3.03;;
78372;SDS011;67656;52.074;4.758;2023-09-07T12:36:04;4.43;;;3.10;;
78372;SDS011;67656;52.074;4.758;2023-09-07T12:41:04;5.30;;;3.57;;
78372;SDS011;67656;52.074;4.758;2023-09-07T12:46:05;4.07;;;3.20;;
78372;SDS011;67656;52.074;4.758;2023-09-07T12:51:05;5.17;;;3.10;;
78372;SDS011;67656;52.074;4.758;2023-09-07T12:56:05;4.93;;;3.17;;
78372;SDS011;67656;52.074;4.758;2023-09-07T13:01:06;7.47;;;3.03;;
78372;SDS011;67656;52.074;4.758;2023-09-07T13:06:06;5.47;;;3.17;;
78372;SDS011;67656;52.074;4.758;2023-09-07T13:11:06;4.77;;;2.93;;
78372;SDS011;67656;52.074;4.758;2023-09-07T13:16:07;4.87;;;3.27;;
78372;SDS011;67656;52.074;4.758;2023-09-07T13:21:07;6.57;;;3.20;;
78372;SDS011;67656;52.074;4.758;2023-09-07T13:26:07;4.87;;;3.37;;
78372;SDS011;67656;52.074;4.758;2023-09-07T13:31:08;6.80;;;3.03;;
78372;SDS011;67656;52.074;4.758;2023-09-07T13:36:08;6.10;;;3.10;;
78372;SDS011;67656;52.074;4.758;2023-09-07T13:41:09;4.07;;;2.63;;
78372;SDS011;67656;52.074;4.758;2023-09-07T13:46:09;6.33;;;2.90;;
78372;SDS011;67656;52.074;4.758;2023-09-07T13:51:09;5.50;;;2.90;;
78372;SDS011;67656;52.074;4.758;2023-09-07T13:56:10;6.27;;;3.53;;
78372;SDS011;67656;52.074;4.758;2023-09-07T14:01:10;4.07;;;3.00;;
78372;SDS011;67656;52.074;4.758;2023-09-07T14:06:10;3.97;;;2.97;;
78372;SDS011;67656;52.074;4.758;2023-09-07T14:11:11;6.47;;;3.40;;
78372;SDS011;67656;52.074;4.758;2023-09-07T14:16:11;4.27;;;3.27;;
78372;SDS011;67656;52.074;4.758;2023-09-07T14:21:15;7.70;;;3.30;;
78372;SDS011;67656;52.074;4.758;2023-09-07T14:26:16;7.13;;;3.15;;
78372;SDS011;67656;52.074;4.758;2023-09-07T14:31:16;6.50;;;3.40;;
78372;SDS011;67656;52.074;4.758;2023-09-07T14:36:17;6.37;;;3.60;;
78372;SDS011;67656;52.074;4.758;2023-09-07T14:41:17;5.57;;;3.30;;
78372;SDS011;67656;52.074;4.758;2023-09-07T14:46:17;5.43;;;3.37;;
78372;SDS011;67656;52.074;4.758;2023-09-07T14:51:18;7.27;;;3.40;;
78372;SDS011;67656;52.074;4.758;2023-09-07T14:56:18;8.97;;;4.07;;
78372;SDS011;67656;52.074;4.758;2023-09-07T15:01:19;7.80;;;3.70;;
78372;SDS011;67656;52.074;4.758;2023-09-07T15:06:19;6.80;;;3.60;;
78372;SDS011;67656;52.074;4.758;2023-09-07T15:11:20;5.77;;;3.63;;
78372;SDS011;67656;52.074;4.758;2023-09-07T15:16:21;5.30;;;3.50;;
78372;SDS011;67656;52.074;4.758;2023-09-07T15:21:21;5.77;;;3.40;;
78372;SDS011;67656;52.074;4.758;2023-09-07T15:26:22;10.10;;;3.83;;
78372;SDS011;67656;52.074;4.758;2023-09-07T15:31:22;8.00;;;3.87;;
78372;SDS011;67656;52.074;4.758;2023-09-07T15:36:22;6.63;;;4.00;;
78372;SDS011;67656;52.074;4.758;2023-09-07T15:41:23;5.90;;;3.33;;
78372;SDS011;67656;52.074;4.758;2023-09-07T15:46:23;5.90;;;3.50;;
78372;SDS011;67656;52.074;4.758;2023-09-07T15:51:24;5.00;;;3.50;;
78372;SDS011;67656;52.074;4.758;2023-09-07T15:56:24;5.55;;;3.53;;
78372;SDS011;67656;52.074;4.758;2023-09-07T16:01:24;9.07;;;3.42;;
78372;SDS011;67656;52.074;4.758;2023-09-07T16:06:25;9.63;;;3.85;;
78372;SDS011;67656;52.074;4.758;2023-09-07T16:11:25;6.50;;;3.85;;
78372;SDS011;67656;52.074;4.758;2023-09-07T16:16:26;7.38;;;3.65;;
78372;SDS011;67656;52.074;4.758;2023-09-07T16:21:26;7.40;;;3.90;;
78372;SDS011;67656;52.074;4.758;2023-09-07T16:26:26;6.17;;;3.80;;
78372;SDS011;67656;52.074;4.758;2023-09-07T16:31:27;6.95;;;3.85;;
78372;SDS011;67656;52.074;4.758;2023-09-07T16:36:27;6.72;;;3.72;;
78372;SDS011;67656;52.074;4.758;2023-09-07T16:41:27;6.65;;;3.60;;
78372;SDS011;67656;52.074;4.758;2023-09-07T16:46:28;6.25;;;4.13;;
78372;SDS011;67656;52.074;4.758;2023-09-07T16:51:28;8.40;;;4.00;;
78372;SDS011;67656;52.074;4.758;2023-09-07T16:56:28;6.72;;;4.28;;
78372;SDS011;67656;52.074;4.758;2023-09-07T17:01:29;5.20;;;3.70;;
78372;SDS011;67656;52.074;4.758;2023-09-07T17:06:29;8.07;;;3.92;;
78372;SDS011;67656;52.074;4.758;2023-09-07T17:11:29;7.45;;;4.20;;
78372;SDS011;67656;52.074;4.758;2023-09-07T17:16:30;8.68;;;4.50;;
78372;SDS011;67656;52.074;4.758;2023-09-07T17:21:30;8.20;;;4.90;;
78372;SDS011;67656;52.074;4.758;2023-09-07T17:26:31;8.15;;;4.38;;
78372;SDS011;67656;52.074;4.758;2023-09-07T17:31:31;9.68;;;5.00;;
78372;SDS011;67656;52.074;4.758;2023-09-07T17:36:31;13.38;;;5.55;;
78372;SDS011;67656;52.074;4.758;2023-09-07T17:41:32;7.15;;;5.18;;
78372;SDS011;67656;52.074;4.758;2023-09-07T17:46:33;9.35;;;5.35;;
78372;SDS011;67656;52.074;4.758;2023-09-07T17:51:33;8.60;;;5.35;;
78372;SDS011;67656;52.074;4.758;2023-09-07T17:56:34;9.07;;;5.97;;
78372;SDS011;67656;52.074;4.758;2023-09-07T18:01:34;7.55;;;5.55;;
78372;SDS011;67656;52.074;4.758;2023-09-07T18:06:38;11.93;;;6.20;;
78372;SDS011;67656;52.074;4.758;2023-09-07T18:11:38;9.23;;;5.60;;
78372;SDS011;67656;52.074;4.758;2023-09-07T18:16:40;12.57;;;5.95;;
78372;SDS011;67656;52.074;4.758;2023-09-07T18:21:41;8.52;;;5.30;;
78372;SDS011;67656;52.074;4.758;2023-09-07T18:26:41;10.30;;;6.40;;
78372;SDS011;67656;52.074;4.758;2023-09-07T18:31:42;10.35;;;6.35;;
78372;SDS011;67656;52.074;4.758;2023-09-07T18:36:43;11.73;;;6.22;;
78372;SDS011;67656;52.074;4.758;2023-09-07T18:41:43;15.27;;;7.60;;
78372;SDS011;67656;52.074;4.758;2023-09-07T18:46:46;10.13;;;6.57;;
78372;SDS011;67656;52.074;4.758;2023-09-07T18:51:48;13.10;;;7.97;;
78372;SDS011;67656;52.074;4.758;2023-09-07T18:56:48;15.02;;;7.10;;
78372;SDS011;67656;52.074;4.758;2023-09-07T19:01:48;10.65;;;6.55;;
78372;SDS011;67656;52.074;4.758;2023-09-07T19:06:49;10.50;;;6.60;;
78372;SDS011;67656;52.074;4.758;2023-09-07T19:11:49;9.93;;;5.85;;
78372;SDS011;67656;52.074;4.758;2023-09-07T19:16:52;8.70;;;5.90;;
78372;SDS011;67656;52.074;4.758;2023-09-07T19:21:53;9.95;;;6.00;;
78372;SDS011;67656;52.074;4.758;2023-09-07T19:26:55;8.75;;;6.22;;
78372;SDS011;67656;52.074;4.758;2023-09-07T19:31:56;11.80;;;6.82;;
78372;SDS011;67656;52.074;4.758;2023-09-07T19:36:56;9.82;;;6.45;;
78372;SDS011;67656;52.074;4.758;2023-09-07T19:41:57;11.57;;;7.57;;
78372;SDS011;67656;52.074;4.758;2023-09-07T19:46:57;10.05;;;6.45;;
78372;SDS011;67656;52.074;4.758;2023-09-07T19:51:59;11.68;;;6.65;;
78372;SDS011;67656;52.074;4.758;2023-09-07T19:57:00;10.83;;;6.47;;
78372;SDS011;67656;52.074;4.758;2023-09-07T20:02:01;10.82;;;6.60;;
78372;SDS011;67656;52.074;4.758;2023-09-07T20:07:01;10.70;;;6.97;;
78372;SDS011;67656;52.074;4.758;2023-09-07T20:12:02;11.85;;;7.60;;
78372;SDS011;67656;52.074;4.758;2023-09-07T20:17:02;12.02;;;8.18;;
78372;SDS011;67656;52.074;4.758;2023-09-07T20:22:03;16.35;;;9.20;;
78372;SDS011;67656;52.074;4.758;2023-09-07T20:27:03;13.80;;;7.60;;
78372;SDS011;67656;52.074;4.758;2023-09-07T20:32:04;11.25;;;7.45;;
78372;SDS011;67656;52.074;4.758;2023-09-07T20:37:05;16.55;;;8.50;;
78372;SDS011;67656;52.074;4.758;2023-09-07T20:42:05;20.52;;;11.68;;
78372;SDS011;67656;52.074;4.758;2023-09-07T20:47:06;18.77;;;11.25;;
78372;SDS011;67656;52.074;4.758;2023-09-07T20:52:06;20.88;;;10.88;;
78372;SDS011;67656;52.074;4.758;2023-09-07T20:57:06;18.67;;;10.75;;
78372;SDS011;67656;52.074;4.758;2023-09-07T21:02:07;18.15;;;10.85;;
78372;SDS011;67656;52.074;4.758;2023-09-07T21:07:07;16.30;;;9.82;;
78372;SDS011;67656;52.074;4.758;2023-09-07T21:12:08;17.25;;;9.70;;
78372;SDS011;67656;52.074;4.758;2023-09-07T21:17:08;20.40;;;11.73;;
78372;SDS011;67656;52.074;4.758;2023-09-07T21:22:09;22.92;;;11.88;;
78372;SDS011;67656;52.074;4.758;2023-09-07T21:27:10;16.88;;;10.32;;
78372;SDS011;67656;52.074;4.758;2023-09-07T21:32:11;19.52;;;11.45;;
78372;SDS011;67656;52.074;4.758;2023-09-07T21:37:11;19.58;;;11.80;;
78372;SDS011;67656;52.074;4.758;2023-09-07T21:42:12;18.92;;;10.82;;
78372;SDS011;67656;52.074;4.758;2023-09-07T21:47:12;27.27;;;16.02;;
78372;SDS011;67656;52.074;4.758;2023-09-07T21:52:12;21.83;;;12.05;;
78372;SDS011;67656;52.074;4.758;2023-09-07T21:57:13;21.58;;;11.82;;
78372;SDS011;67656;52.074;4.758;2023-09-07T22:02:13;18.70;;;11.02;;
78372;SDS011;67656;52.074;4.758;2023-09-07T22:07:14;19.90;;;11.98;;
78372;SDS011;67656;52.074;4.758;2023-09-07T22:12:14;19.27;;;11.25;;
78372;SDS011;67656;52.074;4.758;2023-09-07T22:17:15;23.60;;;12.43;;
78372;SDS011;67656;52.074;4.758;2023-09-07T22:22:15;19.92;;;11.80;;
78372;SDS011;67656;52.074;4.758;2023-09-07T22:27:16;19.33;;;10.60;;
78372;SDS011;67656;52.074;4.758;2023-09-07T22:32:16;18.35;;;10.60;;
78372;SDS011;67656;52.074;4.758;2023-09-07T22:37:17;16.13;;;9.82;;
78372;SDS011;67656;52.074;4.758;2023-09-07T22:42:17;17.85;;;10.32;;
78372;SDS011;67656;52.074;4.758;2023-09-07T22:47:18;16.63;;;9.88;;
78372;SDS011;67656;52.074;4.758;2023-09-07T22:52:20;16.10;;;10.32;;
78372;SDS011;67656;52.074;4.758;2023-09-07T22:57:20;16.08;;;9.90;;
78372;SDS011;67656;52.074;4.758;2023-09-07T23:02:20;17.90;;;10.43;;
78372;SDS011;67656;52.074;4.758;2023-09-07T23:07:21;16.63;;;9.60;;
78372;SDS011;67656;52.074;4.758;2023-09-07T23:12:21;17.20;;;9.80;;
78372;SDS011;67656;52.074;4.758;2023-09-07T23:17:22;19.88;;;10.60;;
78372;SDS011;67656;52.074;4.758;2023-09-07T23:22:22;16.30;;;10.07;;
78372;SDS011;67656;52.074;4.758;2023-09-07T23:27:23;17.92;;;10.40;;
78372;SDS011;67656;52.074;4.758;2023-09-07T23:32:23;15.20;;;9.52;;
78372;SDS011;67656;52.074;4.758;2023-09-07T23:37:23;16.00;;;9.85;;
78372;SDS011;67656;52.074;4.758;2023-09-07T23:42:24;16.40;;;9.70;;
78372;SDS011;67656;52.074;4.758;2023-09-07T23:47:24;16.27;;;9.32;;
78372;SDS011;67656;52.074;4.758;2023-09-07T23:52:27;18.42;;;9.60;;
78372;SDS011;67656;52.074;4.758;2023-09-07T23:57:28;18.40;;;10.07;;
